createdAt,value
2019-06-01T00:01:48.993Z,86.55
2019-06-01T00:04:22.399Z,87.66
2019-06-01T00:06:55.801Z,88.07
2019-06-01T00:09:29.335Z,88.54
2019-06-01T00:12:02.737Z,88.62
2019-06-01T00:14:37.915Z,88.52
2019-06-01T00:17:11.320Z,88.85
2019-06-01T00:19:45.053Z,88.94
2019-06-01T00:22:19.646Z,88.82
2019-06-01T00:24:53.087Z,88.70
2019-06-01T00:27:26.470Z,88.74
2019-06-01T00:29:59.893Z,88.81
2019-06-01T00:32:33.292Z,89.35
2019-06-01T00:35:06.795Z,89.92
2019-06-01T00:37:41.331Z,90.02
2019-06-01T00:40:14.982Z,90.23
2019-06-01T00:42:48.366Z,91.21
2019-06-01T00:45:21.924Z,91.81
2019-06-01T00:47:55.331Z,91.30
2019-06-01T00:50:28.762Z,91.68
2019-06-01T00:53:02.175Z,91.75
2019-06-01T00:55:35.611Z,91.47
2019-06-01T00:58:09.032Z,91.92
2019-06-01T01:00:44.221Z,91.80
2019-06-01T01:03:17.677Z,91.58
2019-06-01T01:05:51.114Z,91.63
2019-06-01T01:08:24.510Z,91.28
2019-06-01T01:10:57.931Z,91.22
2019-06-01T01:13:31.332Z,91.31
2019-06-01T01:16:04.912Z,91.71
2019-06-01T01:18:38.318Z,91.45
2019-06-01T01:21:12.177Z,91.86
2019-06-01T01:23:46.189Z,92.05
2019-06-01T01:26:19.667Z,92.38
2019-06-01T01:28:53.079Z,92.54
2019-06-01T01:31:26.501Z,92.57
2019-06-01T01:33:59.958Z,93.04
2019-06-01T01:36:33.461Z,92.99
2019-06-01T01:39:08.065Z,92.37
2019-06-01T01:41:41.481Z,91.86
2019-06-01T01:44:14.979Z,91.67
2019-06-01T01:46:48.649Z,92.00
2019-06-01T01:49:22.080Z,92.13
2019-06-01T01:51:55.517Z,92.15
2019-06-01T01:54:28.974Z,92.76
2019-06-01T01:57:02.570Z,93.38
2019-06-01T01:59:36.012Z,94.13
2019-06-01T02:02:09.440Z,93.62
2019-06-01T02:04:42.858Z,93.40
2019-06-01T02:07:16.282Z,93.33
2019-06-01T02:09:51.024Z,93.36
2019-06-01T02:12:24.526Z,93.87
2019-06-01T02:14:57.930Z,93.97
2019-06-01T02:17:31.368Z,93.69
2019-06-01T02:20:07.042Z,93.44
2019-06-01T02:22:40.467Z,93.63
2019-06-01T02:25:14.004Z,93.95
2019-06-01T02:27:47.431Z,94.75
2019-06-01T02:30:21.014Z,94.34
2019-06-01T02:32:56.285Z,94.27
2019-06-01T02:35:29.654Z,94.72
2019-06-01T02:38:05.515Z,94.49
2019-06-01T02:40:38.694Z,93.91
2019-06-01T02:43:12.082Z,93.83
2019-06-01T02:45:45.510Z,93.66
2019-06-01T02:48:18.998Z,93.90
2019-06-01T02:50:52.429Z,94.68
2019-06-01T02:53:25.896Z,94.68
2019-06-01T02:55:59.940Z,94.41
2019-06-01T02:58:33.440Z,94.62
2019-06-01T03:01:10.056Z,93.64
2019-06-01T03:03:43.549Z,92.97
2019-06-01T03:06:18.343Z,92.56
2019-06-01T03:08:54.487Z,92.70
2019-06-01T03:11:30.938Z,93.34
2019-06-01T03:14:06.711Z,94.07
2019-06-01T03:16:41.734Z,95.08
2019-06-01T03:19:16.788Z,95.36
2019-06-01T03:21:51.448Z,96.00
2019-06-01T03:24:25.306Z,96.56
2019-06-01T03:26:59.958Z,96.63
2019-06-01T03:29:36.572Z,96.46
2019-06-01T03:32:29.446Z,96.57
2019-06-01T03:34:45.187Z,97.15
2019-06-01T03:37:18.663Z,97.59
2019-06-01T03:39:52.166Z,97.67
2019-06-01T03:42:25.642Z,97.28
2019-06-01T03:44:59.069Z,96.33
2019-06-01T03:47:32.474Z,95.18
2019-06-01T03:50:07.115Z,94.79
2019-06-01T03:52:40.520Z,93.50
2019-06-01T03:55:13.932Z,90.85
2019-06-01T03:57:47.327Z,90.31
2019-06-01T04:00:20.749Z,91.43
2019-06-01T04:02:54.180Z,90.16
2019-06-01T04:05:27.675Z,85.45
2019-06-01T04:08:01.381Z,84.22
2019-06-01T04:10:34.795Z,85.12
2019-06-01T04:13:09.627Z,83.42
2019-06-01T04:15:43.163Z,85.45
2019-06-01T04:18:16.555Z,86.95
2019-06-01T04:20:49.962Z,87.67
2019-06-01T04:23:23.367Z,88.12
2019-06-01T04:25:56.773Z,88.26
2019-06-01T04:28:30.179Z,88.39
2019-06-01T04:31:04.552Z,88.27
2019-06-01T04:33:38.087Z,87.64
2019-06-01T04:36:11.509Z,86.78
2019-06-01T04:38:44.889Z,85.53
2019-06-01T04:41:18.407Z,85.83
2019-06-01T04:43:51.827Z,84.70
2019-06-01T04:46:25.286Z,80.47
2019-06-01T04:48:58.740Z,81.07
2019-06-01T04:51:32.154Z,79.93
2019-06-01T04:54:06.750Z,72.62
2019-06-01T04:56:40.389Z,70.35
2019-06-01T04:59:15.157Z,68.36
2019-06-01T05:01:48.805Z,69.05
2019-06-01T05:04:22.196Z,65.55
2019-06-01T05:06:55.631Z,69.03
2019-06-01T05:09:29.028Z,69.78
2019-06-01T05:12:02.462Z,67.68
2019-06-01T05:14:35.866Z,66.14
2019-06-01T05:17:10.158Z,65.77
2019-06-01T05:19:43.655Z,64.11
2019-06-01T05:22:17.109Z,63.93
2019-06-01T05:24:50.523Z,61.98
2019-06-01T05:27:23.921Z,62.86
2019-06-01T05:29:57.414Z,60.46
2019-06-01T05:32:30.885Z,59.87
2019-06-01T05:35:05.754Z,61.13
2019-06-01T05:37:39.186Z,58.53
2019-06-01T05:40:12.755Z,61.92
2019-06-01T05:42:46.214Z,57.88
2019-06-01T05:45:22.199Z,57.18
2019-06-01T05:47:55.023Z,58.39
2019-06-01T05:50:28.534Z,58.84
2019-06-01T05:53:02.071Z,59.86
2019-06-01T05:55:35.526Z,57.60
2019-06-01T05:58:08.945Z,59.74
2019-06-01T06:00:43.867Z,59.09
2019-06-01T06:03:20.769Z,62.49
2019-06-01T06:05:52.776Z,59.37
2019-06-01T06:08:26.194Z,56.32
2019-06-01T06:10:59.633Z,55.67
2019-06-01T06:13:33.069Z,56.03
2019-06-01T06:16:06.562Z,58.03
2019-06-01T06:18:39.993Z,59.06
2019-06-01T06:21:13.989Z,59.20
2019-06-01T06:23:47.516Z,58.11
2019-06-01T06:26:22.708Z,59.83
2019-06-01T06:28:56.244Z,60.40
2019-06-01T06:31:31.127Z,61.27
2019-06-01T06:34:04.693Z,59.60
2019-06-01T06:36:38.119Z,57.81
2019-06-01T06:39:11.529Z,57.26
2019-06-01T06:41:44.998Z,58.45
2019-06-01T06:44:18.589Z,58.45
2019-06-01T06:46:51.988Z,59.51
2019-06-01T06:49:25.507Z,59.52
2019-06-01T06:51:58.905Z,56.67
2019-06-01T06:54:32.324Z,58.07
2019-06-01T06:57:05.725Z,58.51
2019-06-01T06:59:39.136Z,57.72
2019-06-01T07:02:12.551Z,57.89
2019-06-01T07:04:46.038Z,54.57
2019-06-01T07:07:19.603Z,56.52
2019-06-01T07:09:52.968Z,53.45
2019-06-01T07:12:27.428Z,54.32
2019-06-01T07:15:01.067Z,56.50
2019-06-01T07:17:34.584Z,57.06
2019-06-01T07:20:08.068Z,53.94
2019-06-01T07:22:41.489Z,50.54
2019-06-01T07:25:14.972Z,52.76
2019-06-01T07:27:48.440Z,51.46
2019-06-01T07:30:22.213Z,52.56
2019-06-01T07:32:55.620Z,54.79
2019-06-01T07:35:29.059Z,55.00
2019-06-01T07:38:03.338Z,53.99
2019-06-01T07:40:36.751Z,50.76
2019-06-01T07:43:10.251Z,52.73
2019-06-01T07:45:43.716Z,49.47
2019-06-01T07:48:17.115Z,50.31
2019-06-01T07:50:50.544Z,52.31
2019-06-01T07:53:24.450Z,50.28
2019-06-01T07:55:59.083Z,50.65
2019-06-01T07:58:32.947Z,50.74
2019-06-01T08:01:06.501Z,50.71
2019-06-01T08:03:39.938Z,47.84
2019-06-01T08:06:13.331Z,47.74
2019-06-01T08:08:46.764Z,49.57
2019-06-01T08:11:21.268Z,49.97
2019-06-01T08:13:54.771Z,48.70
2019-06-01T08:16:28.179Z,47.72
2019-06-01T08:19:01.577Z,49.41
2019-06-01T08:21:34.983Z,50.32
2019-06-01T08:24:08.442Z,48.66
2019-06-01T08:26:41.827Z,45.80
2019-06-01T08:29:15.221Z,46.24
2019-06-01T08:31:48.623Z,48.16
2019-06-01T08:34:22.719Z,50.42
2019-06-01T08:36:56.178Z,50.66
2019-06-01T08:39:29.597Z,49.88
2019-06-01T08:42:03.000Z,51.52
2019-06-01T08:44:36.421Z,50.90
2019-06-01T08:47:09.892Z,51.00
2019-06-01T08:49:43.328Z,51.69
2019-06-01T08:52:16.747Z,52.31
2019-06-01T08:54:50.167Z,51.28
2019-06-01T08:57:24.202Z,49.79
2019-06-01T08:59:57.756Z,51.46
2019-06-01T09:02:32.557Z,51.12
2019-06-01T09:05:21.318Z,50.15
2019-06-01T09:07:43.246Z,51.79
2019-06-01T09:10:16.863Z,51.36
2019-06-01T09:12:50.235Z,49.04
2019-06-01T09:15:23.654Z,47.97
2019-06-01T09:17:57.041Z,48.73
2019-06-01T09:20:35.320Z,49.46
2019-06-01T09:23:05.625Z,47.61
2019-06-01T09:25:39.044Z,46.20
2019-06-01T09:28:12.437Z,49.49
2019-06-01T09:30:45.878Z,49.24
2019-06-01T09:33:19.283Z,48.93
2019-06-01T09:35:56.174Z,47.64
2019-06-01T09:38:27.822Z,48.42
2019-06-01T09:41:01.236Z,47.16
2019-06-01T09:43:34.987Z,47.57
2019-06-01T09:46:08.724Z,45.89
2019-06-01T09:48:42.223Z,45.48
2019-06-01T09:51:15.627Z,47.11
2019-06-01T09:53:49.043Z,45.70
2019-06-01T09:56:22.530Z,46.23
2019-06-01T09:58:55.933Z,45.28
2019-06-01T10:01:30.057Z,44.03
2019-06-01T10:04:03.678Z,44.41
2019-06-01T10:06:37.082Z,44.97
2019-06-01T10:09:10.577Z,44.91
2019-06-01T10:11:44.076Z,44.19
2019-06-01T10:14:17.511Z,43.61
2019-06-01T10:16:50.959Z,42.25
2019-06-01T10:19:24.379Z,42.78
2019-06-01T10:21:57.814Z,40.54
2019-06-01T10:24:31.244Z,41.55
2019-06-01T10:27:04.731Z,40.07
2019-06-01T10:29:39.890Z,39.11
2019-06-01T10:32:13.345Z,40.53
2019-06-01T10:34:48.420Z,40.16
2019-06-01T10:37:29.644Z,37.70
2019-06-01T10:39:58.644Z,39.36
2019-06-01T10:42:32.773Z,38.54
2019-06-01T10:45:08.470Z,38.69
2019-06-01T10:47:42.264Z,41.34
2019-06-01T10:50:17.426Z,41.38
2019-06-01T10:52:50.895Z,41.19
2019-06-01T10:55:24.315Z,41.49
2019-06-01T10:57:57.746Z,41.00
2019-06-01T11:00:38.738Z,39.64
2019-06-01T11:03:06.324Z,39.21
2019-06-01T11:05:40.864Z,40.54
2019-06-01T11:08:14.383Z,40.77
2019-06-01T11:10:47.781Z,38.62
2019-06-01T11:13:21.206Z,41.07
2019-06-01T11:15:54.619Z,40.74
2019-06-01T11:18:28.049Z,40.01
2019-06-01T11:21:01.461Z,38.66
2019-06-01T11:23:35.558Z,38.40
2019-06-01T11:26:09.008Z,38.40
2019-06-01T11:28:42.519Z,38.83
2019-06-01T11:31:15.931Z,38.22
2019-06-01T11:33:49.389Z,39.10
2019-06-01T11:36:22.808Z,37.62
2019-06-01T11:38:56.234Z,38.26
2019-06-01T11:41:29.661Z,36.96
2019-06-01T11:44:03.148Z,37.48
2019-06-01T11:46:36.760Z,38.04
2019-06-01T11:49:10.196Z,38.25
2019-06-01T11:51:43.590Z,38.40
2019-06-01T11:54:16.999Z,38.78
2019-06-01T11:56:50.394Z,37.88
2019-06-01T11:59:23.828Z,38.96
2019-06-01T12:01:57.263Z,38.95
2019-06-01T12:04:30.694Z,40.05
2019-06-01T12:07:16.993Z,37.96
2019-06-01T12:09:39.926Z,37.42
2019-06-01T12:12:13.391Z,37.93
2019-06-01T12:14:46.935Z,38.20
2019-06-01T12:17:20.326Z,37.06
2019-06-01T12:19:53.763Z,37.39
2019-06-01T12:22:27.178Z,38.33
2019-06-01T12:25:00.612Z,37.92
2019-06-01T12:27:34.094Z,36.02
2019-06-01T12:30:09.262Z,36.18
2019-06-01T12:32:43.932Z,37.28
2019-06-01T12:35:17.817Z,35.92
2019-06-01T12:38:05.339Z,35.50
2019-06-01T12:40:26.365Z,34.85
2019-06-01T12:42:59.779Z,36.63
2019-06-01T12:45:33.234Z,36.70
2019-06-01T12:48:06.725Z,35.54
2019-06-01T12:50:40.154Z,36.80
2019-06-01T12:53:13.566Z,36.68
2019-06-01T12:55:47.023Z,35.46
2019-06-01T12:58:20.430Z,33.78
2019-06-01T13:00:53.892Z,33.42
2019-06-01T13:03:27.307Z,33.58
2019-06-01T13:06:00.753Z,33.68
2019-06-01T13:08:34.151Z,33.69
2019-06-01T13:11:07.558Z,33.55
2019-06-01T13:13:41.269Z,32.74
2019-06-01T13:16:14.628Z,33.17
2019-06-01T13:18:49.444Z,32.79
2019-06-01T13:21:23.134Z,31.87
2019-06-01T13:23:56.565Z,31.23
2019-06-01T13:26:29.970Z,33.44
2019-06-01T13:29:03.371Z,33.29
2019-06-01T13:31:36.875Z,32.69
2019-06-01T13:34:10.309Z,32.89
2019-06-01T13:36:44.583Z,33.20
2019-06-01T13:39:18.076Z,33.98
2019-06-01T13:41:51.607Z,33.06
2019-06-01T13:44:25.039Z,32.67
2019-06-01T13:46:58.485Z,33.44
2019-06-01T13:49:31.887Z,32.31
2019-06-01T13:52:05.364Z,31.98
2019-06-01T13:54:40.188Z,32.20
2019-06-01T13:57:14.745Z,32.47
2019-06-01T13:59:48.771Z,32.81
2019-06-01T14:02:22.291Z,32.42
2019-06-01T14:04:56.194Z,33.17
2019-06-01T14:07:29.718Z,32.13
2019-06-01T14:10:05.354Z,31.67
2019-06-01T14:12:38.769Z,32.24
2019-06-01T14:15:12.472Z,31.13
2019-06-01T14:17:46.023Z,32.44
2019-06-01T14:20:19.396Z,32.46
2019-06-01T14:22:54.073Z,32.88
2019-06-01T14:25:27.565Z,32.70
2019-06-01T14:28:00.953Z,32.15
2019-06-01T14:30:34.410Z,32.25
2019-06-01T14:33:07.883Z,32.19
2019-06-01T14:35:41.322Z,31.26
2019-06-01T14:38:14.721Z,31.60
2019-06-01T14:40:48.938Z,32.72
2019-06-01T14:43:22.430Z,33.41
2019-06-01T14:45:56.015Z,33.21
2019-06-01T14:48:29.419Z,32.98
2019-06-01T14:51:02.855Z,33.14
2019-06-01T14:53:36.251Z,33.63
2019-06-01T14:56:09.709Z,32.72
2019-06-01T14:58:43.095Z,33.31
2019-06-01T15:01:31.393Z,33.29
2019-06-01T15:03:52.280Z,32.92
2019-06-01T15:06:25.714Z,34.50
2019-06-01T15:09:17.093Z,34.41
2019-06-01T15:11:34.358Z,33.55
2019-06-01T15:14:07.768Z,33.58
2019-06-01T15:16:41.201Z,33.49
2019-06-01T15:19:15.013Z,34.09
2019-06-01T15:21:49.773Z,33.41
2019-06-01T15:24:23.548Z,31.92
2019-06-01T15:26:57.011Z,32.50
2019-06-01T15:29:30.442Z,31.44
2019-06-01T15:32:03.971Z,30.32
2019-06-01T15:34:37.439Z,29.89
2019-06-01T15:37:10.819Z,30.14
2019-06-01T15:39:44.245Z,32.08
2019-06-01T15:42:17.709Z,30.95
2019-06-01T15:44:51.109Z,32.05
2019-06-01T15:47:24.530Z,28.40
2019-06-01T15:49:58.161Z,30.71
2019-06-01T15:52:31.587Z,31.33
2019-06-01T15:55:07.514Z,29.85
2019-06-01T15:57:40.944Z,29.44
2019-06-01T16:00:14.832Z,29.35
2019-06-01T16:02:48.334Z,31.22
2019-06-01T16:05:21.781Z,31.49
2019-06-01T16:07:55.220Z,31.27
2019-06-01T16:10:28.625Z,30.36
2019-06-01T16:13:02.134Z,28.72
2019-06-01T16:15:35.586Z,29.81
2019-06-01T16:18:09.014Z,32.06
2019-06-01T16:20:42.440Z,30.33
2019-06-01T16:23:15.896Z,30.13
2019-06-01T16:26:02.982Z,29.95
2019-06-01T16:28:24.546Z,31.54
2019-06-01T16:30:58.509Z,28.97
2019-06-01T16:33:31.974Z,32.88
2019-06-01T16:36:05.668Z,32.73
2019-06-01T16:38:39.055Z,33.06
2019-06-01T16:41:12.476Z,31.31
2019-06-01T16:43:45.902Z,30.09
2019-06-01T16:46:19.393Z,31.49
2019-06-01T16:48:52.958Z,30.17
2019-06-01T16:51:26.361Z,29.69
2019-06-01T16:53:59.778Z,30.78
2019-06-01T16:56:33.186Z,31.60
2019-06-01T16:59:06.620Z,31.11
2019-06-01T17:01:40.136Z,31.62
2019-06-01T17:04:13.623Z,31.68
2019-06-01T17:06:47.571Z,30.95
2019-06-01T17:09:21.096Z,29.84
2019-06-01T17:11:54.574Z,31.57
2019-06-01T17:14:28.002Z,34.43
2019-06-01T17:17:01.479Z,33.77
2019-06-01T17:19:34.887Z,32.70
2019-06-01T17:22:08.346Z,32.74
2019-06-01T17:24:41.911Z,33.25
2019-06-01T17:27:15.391Z,33.03
2019-06-01T17:29:48.825Z,33.07
2019-06-01T17:32:24.567Z,33.22
2019-06-01T17:34:58.602Z,34.32
2019-06-01T17:37:32.087Z,35.73
2019-06-01T17:40:08.452Z,36.55
2019-06-01T17:42:41.873Z,37.71
2019-06-01T17:45:15.594Z,37.58
2019-06-01T17:47:49.121Z,38.09
2019-06-01T17:50:23.830Z,38.89
2019-06-01T17:52:57.320Z,39.16
2019-06-01T17:55:33.119Z,39.57
2019-06-01T17:58:07.819Z,39.04
2019-06-01T18:00:42.410Z,38.60
2019-06-01T18:03:15.845Z,39.12
2019-06-01T18:05:49.394Z,40.45
2019-06-01T18:08:22.886Z,40.89
2019-06-01T18:10:56.316Z,41.28
2019-06-01T18:13:29.702Z,41.84
2019-06-01T18:16:04.541Z,41.92
2019-06-01T18:18:38.122Z,41.37
2019-06-01T18:21:12.878Z,42.06
2019-06-01T18:23:49.151Z,42.59
2019-06-01T18:26:21.643Z,42.82
2019-06-01T18:28:55.063Z,43.07
2019-06-01T18:31:28.472Z,41.88
2019-06-01T18:34:03.205Z,42.60
2019-06-01T18:36:36.722Z,42.65
2019-06-01T18:39:11.643Z,43.10
2019-06-01T18:41:45.282Z,43.90
2019-06-01T18:44:18.824Z,44.50
2019-06-01T18:46:52.518Z,45.30
2019-06-01T18:49:25.917Z,45.82
2019-06-01T18:51:59.605Z,45.81
2019-06-01T18:54:33.017Z,45.81
2019-06-01T18:57:13.418Z,45.76
2019-06-01T18:59:41.788Z,45.66
2019-06-01T19:02:15.278Z,46.03
2019-06-01T19:04:48.689Z,46.20
2019-06-01T19:07:22.105Z,46.41
2019-06-01T19:09:55.500Z,46.70
2019-06-01T19:12:29.043Z,47.07
2019-06-01T19:15:03.019Z,47.38
2019-06-01T19:17:36.784Z,48.19
2019-06-01T19:20:11.129Z,47.86
2019-06-01T19:22:44.653Z,47.94
2019-06-01T19:25:18.129Z,48.36
2019-06-01T19:27:51.576Z,49.10
2019-06-01T19:30:39.571Z,49.63
2019-06-01T19:33:17.288Z,50.33
2019-06-01T19:35:49.858Z,50.60
2019-06-01T19:38:23.291Z,51.31
2019-06-01T19:40:56.716Z,51.68
2019-06-01T19:43:30.224Z,52.42
2019-06-01T19:46:03.622Z,52.51
2019-06-01T19:48:37.061Z,52.57
2019-06-01T19:51:10.747Z,52.94
2019-06-01T19:53:44.241Z,53.50
2019-06-01T19:56:17.621Z,54.10
2019-06-01T19:58:51.061Z,54.71
2019-06-01T20:01:24.460Z,55.27
2019-06-01T20:03:57.912Z,55.73
2019-06-01T20:06:31.337Z,56.31
2019-06-01T20:09:06.931Z,57.02
2019-06-01T20:11:40.367Z,57.81
2019-06-01T20:14:14.246Z,58.01
2019-06-01T20:16:47.765Z,58.30
2019-06-01T20:19:21.874Z,58.66
2019-06-01T20:21:55.282Z,59.18
2019-06-01T20:24:28.730Z,59.63
2019-06-01T20:27:02.137Z,60.44
2019-06-01T20:29:35.646Z,60.62
2019-06-01T20:32:09.241Z,61.11
2019-06-01T20:34:42.701Z,61.69
2019-06-01T20:37:16.056Z,61.20
2019-06-01T20:39:49.588Z,61.39
2019-06-01T20:42:32.056Z,61.91
2019-06-01T20:44:58.160Z,61.56
2019-06-01T20:47:31.681Z,61.09
2019-06-01T20:50:07.977Z,60.77
2019-06-01T20:52:41.434Z,61.33
2019-06-01T20:55:16.949Z,60.72
2019-06-01T20:57:50.401Z,61.50
2019-06-01T21:00:23.968Z,60.81
2019-06-01T21:02:57.402Z,61.52
2019-06-01T21:05:30.792Z,61.25
2019-06-01T21:08:05.337Z,61.25
2019-06-01T21:10:38.804Z,61.43
2019-06-01T21:13:12.179Z,62.19
2019-06-01T21:15:45.610Z,62.52
2019-06-01T21:18:19.641Z,61.94
2019-06-01T21:20:54.289Z,62.31
2019-06-01T21:23:27.702Z,63.14
2019-06-01T21:26:01.232Z,62.07
2019-06-01T21:28:34.712Z,63.03
2019-06-01T21:31:08.141Z,62.68
2019-06-01T21:33:41.534Z,63.10
2019-06-01T21:36:15.297Z,63.15
2019-06-01T21:38:48.703Z,63.40
2019-06-01T21:41:22.136Z,64.28
2019-06-01T21:43:55.541Z,66.17
2019-06-01T21:46:28.966Z,63.99
2019-06-01T21:49:02.377Z,64.35
2019-06-01T21:51:35.800Z,64.48
2019-06-01T21:54:09.194Z,65.63
2019-06-01T21:56:42.629Z,65.96
2019-06-01T21:59:16.471Z,66.58
2019-06-01T22:01:50.140Z,65.40
2019-06-01T22:04:25.335Z,65.94
2019-06-01T22:06:58.777Z,66.29
2019-06-01T22:09:32.190Z,65.94
2019-06-01T22:12:05.693Z,67.10
2019-06-01T22:14:39.142Z,66.21
2019-06-01T22:17:12.578Z,66.31
2019-06-01T22:19:45.972Z,67.38
2019-06-01T22:22:19.654Z,67.23
2019-06-01T22:24:52.983Z,67.30
2019-06-01T22:27:26.486Z,67.62
2019-06-01T22:29:59.913Z,68.02
2019-06-01T22:32:33.339Z,68.75
2019-06-01T22:35:07.764Z,70.23
2019-06-01T22:37:41.224Z,70.93
2019-06-01T22:40:15.345Z,70.98
2019-06-01T22:42:48.797Z,70.36
2019-06-01T22:45:22.283Z,71.15
2019-06-01T22:47:55.685Z,70.65
2019-06-01T22:50:29.172Z,70.66
2019-06-01T22:53:02.684Z,71.28
2019-06-01T22:55:36.109Z,71.24
2019-06-01T22:58:09.520Z,70.72
2019-06-01T23:00:42.921Z,70.44
2019-06-01T23:03:16.399Z,70.17
2019-06-01T23:05:49.871Z,70.36
2019-06-01T23:08:24.069Z,71.14
2019-06-01T23:10:58.500Z,71.47
2019-06-01T23:13:32.408Z,72.56
2019-06-01T23:16:05.998Z,72.05
2019-06-01T23:18:39.427Z,72.44
2019-06-01T23:21:12.857Z,73.30
2019-06-01T23:23:46.267Z,73.51
2019-06-01T23:26:19.684Z,74.45
2019-06-01T23:28:53.120Z,74.80
2019-06-01T23:31:26.519Z,74.71
2019-06-01T23:33:59.937Z,75.30
2019-06-01T23:36:33.333Z,75.98
2019-06-01T23:39:08.116Z,76.06
2019-06-01T23:41:41.520Z,75.40
2019-06-01T23:44:14.969Z,75.19
2019-06-01T23:46:48.369Z,75.96
2019-06-01T23:49:23.023Z,75.91
2019-06-01T23:51:56.528Z,75.91
2019-06-01T23:54:29.983Z,75.59
2019-06-01T23:57:03.421Z,75.59
2019-06-01T23:59:36.859Z,75.44
